Time;durP1;ratioP1;P1;durP2;ratioP2;P2;SDS_P1;SDS_P2;PMS_P1;PMS_P2;Temp;Humidity;BMP_temperature;BMP_pressure;BME280_temperature;BME280_humidity;BME280_pressure;Samples;Min_cycle;Max_cycle;Signal;HPM_P1;HPM_P2
2023/12/16 00:01:16;;;;;;;11.80;3.97;;;;;;;5.47;100.00;103603.88;4891207;29;20051;-77
2023/12/16 00:03:43;;;;;;;12.43;3.22;;;;;;;5.47;100.00;103609.13;4937295;29;20043;-77
2023/12/16 00:06:11;;;;;;;14.65;3.67;;;;;;;5.47;100.00;103609.13;4913915;29;20054;-77
2023/12/16 00:08:39;;;;;;;15.57;4.45;;;;;;;5.49;100.00;103603.09;4926159;29;20043;-77
2023/12/16 00:11:07;;;;;;;11.70;3.47;;;;;;;5.47;100.00;103598.66;4895859;29;20096;-77
2023/12/16 00:13:35;;;;;;;13.85;3.45;;;;;;;5.49;100.00;103603.09;4908259;29;20062;-79
2023/12/16 00:16:03;;;;;;;12.38;3.10;;;;;;;5.51;100.00;103601.50;4923625;29;20066;-77
2023/12/16 00:18:31;;;;;;;12.85;3.78;;;;;;;5.53;100.00;103605.13;4906218;28;20102;-77
2023/12/16 00:20:58;;;;;;;12.45;3.35;;;;;;;5.53;100.00;103602.50;4908765;29;20055;-77
2023/12/16 00:23:25;;;;;;;10.63;3.17;;;;;;;5.54;100.00;103594.75;4933592;28;20039;-77
2023/12/16 00:25:52;;;;;;;11.98;3.17;;;;;;;5.55;100.00;103593.03;4930175;29;20044;-77
2023/12/16 00:28:20;;;;;;;12.77;3.38;;;;;;;5.55;100.00;103590.44;4943072;29;20047;-78
2023/12/16 00:30:48;;;;;;;17.15;2.90;;;;;;;5.54;100.00;103601.66;4931433;29;20447;-79
2023/12/16 00:33:17;;;;;;;14.15;4.15;;;;;;;5.53;100.00;103600.78;4893440;29;20048;-77
2023/12/16 00:35:45;;;;;;;8.60;2.90;;;;;;;5.51;100.00;103598.88;4920117;29;20401;-77
2023/12/16 00:38:12;;;;;;;12.48;3.53;;;;;;;5.49;100.00;103590.03;4932664;29;20059;-78
2023/12/16 00:40:40;;;;;;;13.35;3.42;;;;;;;5.46;100.00;103583.78;4930706;29;20062;-78
2023/12/16 00:43:08;;;;;;;13.55;3.10;;;;;;;5.43;100.00;103583.56;4932033;29;20047;-77
2023/12/16 00:45:35;;;;;;;13.35;2.70;;;;;;;5.41;100.00;103585.16;4932804;29;20485;-78
2023/12/16 00:48:03;;;;;;;8.88;3.15;;;;;;;5.39;100.00;103578.03;4874882;29;20055;-77
2023/12/16 00:50:31;;;;;;;12.57;3.10;;;;;;;5.37;100.00;103580.53;4950920;29;20047;-77
2023/12/16 00:52:58;;;;;;;9.25;2.50;;;;;;;5.34;100.00;103584.66;4908697;29;20055;-77
2023/12/16 00:55:25;;;;;;;11.73;3.13;;;;;;;5.32;100.00;103579.31;4951190;29;20047;-77
2023/12/16 00:57:53;;;;;;;9.40;2.90;;;;;;;5.31;100.00;103571.34;4931017;29;20047;-77
2023/12/16 01:00:20;;;;;;;10.30;2.67;;;;;;;5.29;100.00;103576.47;4932678;29;20047;-78
2023/12/16 01:02:48;;;;;;;13.40;2.70;;;;;;;5.27;100.00;103583.31;4860144;28;20058;-77
2023/12/16 01:05:15;;;;;;;8.18;2.63;;;;;;;5.24;100.00;103580.50;4903944;29;20047;-78
2023/12/16 01:07:42;;;;;;;7.55;2.92;;;;;;;5.23;100.00;103570.81;4939158;29;20039;-77
2023/12/16 01:10:10;;;;;;;5.80;2.10;;;;;;;5.23;100.00;103576.06;4916825;29;20043;-77
2023/12/16 01:12:37;;;;;;;9.25;2.08;;;;;;;5.22;100.00;103566.41;4916009;29;20058;-77
2023/12/16 01:15:05;;;;;;;9.77;2.53;;;;;;;5.22;100.00;103572.53;4931718;29;20055;-77
2023/12/16 01:17:33;;;;;;;14.43;2.83;;;;;;;5.20;100.00;103571.53;4938247;29;20054;-77
2023/12/16 01:20:00;;;;;;;6.35;2.45;;;;;;;5.21;100.00;103564.59;4905680;29;20492;-77
2023/12/16 01:22:28;;;;;;;10.88;2.35;;;;;;;5.20;100.00;103571.53;4924988;29;20043;-77
2023/12/16 01:24:55;;;;;;;8.02;2.25;;;;;;;5.19;100.00;103577.56;4946733;29;20043;-77
2023/12/16 01:27:23;;;;;;;7.43;2.35;;;;;;;5.19;100.00;103587.09;4958991;28;20062;-78
2023/12/16 01:29:50;;;;;;;6.43;2.05;;;;;;;5.19;100.00;103580.16;4913869;29;20059;-77
2023/12/16 01:32:18;;;;;;;12.63;2.83;;;;;;;5.18;100.00;103583.59;4917729;29;20394;-78
2023/12/16 01:34:45;;;;;;;12.32;2.85;;;;;;;5.17;100.00;103576.53;4889495;28;20048;-76
2023/12/16 01:37:13;;;;;;;9.82;2.42;;;;;;;5.18;100.00;103588.81;4942304;28;20051;-77
2023/12/16 01:39:40;;;;;;;19.17;3.20;;;;;;;5.19;100.00;103584.50;4930905;29;20058;-77
2023/12/16 01:42:08;;;;;;;13.98;2.47;;;;;;;5.20;100.00;103586.31;4933378;29;20051;-77
2023/12/16 01:44:35;;;;;;;6.60;2.47;;;;;;;5.21;100.00;103589.00;4932508;28;20738;-77
2023/12/16 01:47:03;;;;;;;7.15;1.98;;;;;;;5.22;100.00;103582.09;4962570;28;20043;-77
2023/12/16 01:49:31;;;;;;;7.88;2.10;;;;;;;5.23;100.00;103594.34;4944102;29;20043;-77
2023/12/16 01:51:58;;;;;;;9.10;2.13;;;;;;;5.24;100.00;103593.56;4918154;29;20048;-77
2023/12/16 01:54:26;;;;;;;6.72;2.03;;;;;;;5.24;100.00;103577.88;4906947;29;20055;-77
2023/12/16 01:56:59;;;;;;;7.03;2.35;;;;;;;5.25;100.00;103583.22;4913152;29;20051;-78
2023/12/16 01:59:27;;;;;;;10.98;2.25;;;;;;;5.24;100.00;103573.56;4933102;29;20055;-78
2023/12/16 02:01:55;;;;;;;8.35;2.72;;;;;;;5.23;100.00;103576.94;4929665;29;20051;-78
2023/12/16 02:04:23;;;;;;;7.13;2.25;;;;;;;5.23;100.00;103576.94;4916798;29;20051;-78
2023/12/16 02:06:50;;;;;;;9.13;2.83;;;;;;;5.22;100.00;103574.25;4885289;29;20047;-77
2023/12/16 02:09:19;;;;;;;16.58;2.95;;;;;;;5.20;100.00;103579.38;4940476;29;20054;-78
2023/12/16 02:11:47;;;;;;;4.82;2.28;;;;;;;5.19;100.00;103582.78;4913806;29;20051;-77
2023/12/16 02:14:14;;;;;;;9.85;2.88;;;;;;;5.17;100.00;103570.41;4931940;29;20066;-77
2023/12/16 02:16:42;;;;;;;10.15;1.88;;;;;;;5.17;100.00;103580.88;4929781;29;20043;-77
2023/12/16 02:19:23;;;;;;;5.68;1.70;;;;;;;5.13;100.00;103578.84;4916283;29;20063;-77
2023/12/16 02:21:51;;;;;;;10.10;2.38;;;;;;;5.11;100.00;103577.84;4879971;29;20050;-78
2023/12/16 02:24:19;;;;;;;11.48;2.50;;;;;;;5.07;100.00;103567.16;4934963;28;20039;-77
2023/12/16 02:26:47;;;;;;;10.80;2.17;;;;;;;5.05;100.00;103562.63;4946119;29;20048;-77
2023/12/16 02:29:15;;;;;;;8.60;2.03;;;;;;;5.03;100.00;103577.31;4932846;29;20456;-77
2023/12/16 02:31:44;;;;;;;;;;;;;;;4.99;100.00;103576.19;4930596;29;20043;-77
2023/12/16 02:34:12;;;;;;;8.02;1.90;;;;;;;4.96;100.00;103581.19;4898694;29;19930;-77
2023/12/16 02:36:40;;;;;;;7.38;3.00;;;;;;;4.94;100.00;103568.81;4889933;29;20051;-78
2023/12/16 02:39:09;;;;;;;8.75;1.75;;;;;;;4.91;100.00;103574.72;4909419;29;20059;-78
2023/12/16 02:41:36;;;;;;;14.48;2.92;;;;;;;4.88;100.00;103570.19;4930775;29;20055;-77
2023/12/16 02:44:03;;;;;;;9.23;2.85;;;;;;;4.85;100.00;103569.97;4897159;29;20051;-77
2023/12/16 02:46:31;;;;;;;5.32;1.75;;;;;;;4.83;100.00;103568.97;4929652;29;20051;-77
2023/12/16 02:48:58;;;;;;;13.07;2.00;;;;;;;4.80;100.00;103560.00;4928142;29;20055;-77
2023/12/16 02:51:26;;;;;;;8.93;2.15;;;;;;;4.77;100.00;103560.69;4930674;29;20051;-77
2023/12/16 02:53:53;;;;;;;10.25;2.53;;;;;;;4.74;100.00;103565.69;4904388;28;20493;-77
2023/12/16 02:56:21;;;;;;;10.90;1.90;;;;;;;4.74;100.00;103577.84;4891072;29;20051;-77
2023/12/16 02:58:49;;;;;;;10.57;2.40;;;;;;;4.71;100.00;103567.19;4913545;29;20058;-77
2023/12/16 03:01:17;;;;;;;14.65;2.45;;;;;;;4.71;100.00;103567.19;4915507;29;20054;-77
2023/12/16 03:03:44;;;;;;;10.55;1.83;;;;;;;4.68;100.00;103574.00;4930507;29;20043;-77
2023/12/16 03:06:12;;;;;;;6.57;1.92;;;;;;;4.66;100.00;103570.38;4932073;29;20393;-77
2023/12/16 03:08:39;;;;;;;11.02;2.20;;;;;;;4.64;100.00;103577.19;4889902;29;20054;-78
2023/12/16 03:11:07;;;;;;;12.35;2.42;;;;;;;4.63;100.00;103574.47;4936536;29;20055;-77
2023/12/16 03:13:34;;;;;;;12.93;1.80;;;;;;;4.61;100.00;103577.00;4914763;29;20051;-77
2023/12/16 03:16:02;;;;;;;9.68;2.90;;;;;;;4.60;100.00;103575.19;4946509;28;20062;-77
2023/12/16 03:18:30;;;;;;;10.93;1.98;;;;;;;4.58;100.00;103573.28;4947747;29;20048;-77
2023/12/16 03:20:57;;;;;;;6.25;1.67;;;;;;;4.56;100.00;103588.81;4945070;29;20043;-77
2023/12/16 03:23:24;;;;;;;10.10;2.78;;;;;;;4.54;100.00;103587.81;4891731;29;20039;-77
2023/12/16 03:25:52;;;;;;;12.07;2.08;;;;;;;4.51;100.00;103590.19;4901830;29;20528;-78
2023/12/16 03:28:20;;;;;;;7.38;2.00;;;;;;;4.50;100.00;103596.22;4915747;29;20385;-77
2023/12/16 03:30:48;;;;;;;13.20;2.33;;;;;;;4.48;100.00;103588.28;4926112;29;20051;-77
2023/12/16 03:33:16;;;;;;;8.52;2.38;;;;;;;4.46;100.00;103584.66;4929747;29;20418;-77
2023/12/16 03:35:43;;;;;;;11.55;2.40;;;;;;;4.44;100.00;103575.81;4925710;29;20044;-77
2023/12/16 03:38:11;;;;;;;9.43;2.60;;;;;;;4.42;100.00;103568.63;4923016;29;20055;-78
2023/12/16 03:40:39;;;;;;;7.93;2.55;;;;;;;4.40;100.00;103565.00;4891639;28;20502;-77
2023/12/16 03:43:06;;;;;;;10.20;2.85;;;;;;;4.37;100.00;103560.47;4921582;29;20386;-77
2023/12/16 03:45:34;;;;;;;8.20;1.83;;;;;;;4.35;100.00;103559.47;4930297;29;20055;-77
2023/12/16 03:48:01;;;;;;;6.85;2.10;;;;;;;4.33;100.00;103565.34;4914319;29;20043;-78
2023/12/16 03:50:29;;;;;;;7.55;2.47;;;;;;;4.31;100.00;103560.03;4931722;29;20058;-77
2023/12/16 03:52:56;;;;;;;15.30;3.05;;;;;;;4.29;100.00;103562.53;4916634;29;20058;-78
2023/12/16 03:55:23;;;;;;;9.65;2.60;;;;;;;4.29;100.00;103565.16;4893170;29;20386;-78
2023/12/16 03:57:51;;;;;;;10.38;2.65;;;;;;;4.27;100.00;103552.75;4939208;29;20927;-77
2023/12/16 04:00:18;;;;;;;10.23;2.58;;;;;;;4.27;100.00;103551.09;4936526;29;20585;-78
2023/12/16 04:02:46;;;;;;;12.23;2.60;;;;;;;4.26;100.00;103544.03;4949481;29;20047;-77
2023/12/16 04:05:13;;;;;;;10.35;2.67;;;;;;;4.26;100.00;103540.53;4953272;29;20039;-77
2023/12/16 04:07:41;;;;;;;13.60;4.57;;;;;;;4.26;100.00;103546.66;4929901;29;20050;-77
2023/12/16 04:10:10;;;;;;;12.50;3.30;;;;;;;4.26;100.00;103537.91;4900561;29;20063;-77
2023/12/16 04:12:37;;;;;;;14.80;3.70;;;;;;;4.25;100.00;103543.91;4933695;29;20075;-77
2023/12/16 04:15:06;;;;;;;16.80;3.03;;;;;;;4.25;100.00;103546.53;4933852;28;20054;-77
2023/12/16 04:17:33;;;;;;;12.52;2.38;;;;;;;4.24;100.00;103547.34;4934655;29;20085;-78
2023/12/16 04:20:01;;;;;;;16.67;3.47;;;;;;;4.24;100.00;103548.25;4918011;29;20059;-77
2023/12/16 04:22:28;;;;;;;11.73;2.50;;;;;;;4.23;100.00;103545.50;4919852;29;20063;-77
2023/12/16 04:24:57;;;;;;;13.50;2.97;;;;;;;4.21;100.00;103540.19;4904586;28;20039;-77
2023/12/16 04:27:26;;;;;;;19.63;3.58;;;;;;;4.20;100.00;103551.44;4909547;29;20046;-77
2023/12/16 04:29:54;;;;;;;15.63;2.78;;;;;;;4.21;100.00;103560.16;4921558;29;20568;-78
2023/12/16 04:32:21;;;;;;;14.18;2.97;;;;;;;4.19;100.00;103557.44;4934176;29;20047;-78
2023/12/16 04:34:49;;;;;;;14.40;3.03;;;;;;;4.21;100.00;103558.44;4930741;29;20074;-77
2023/12/16 04:37:16;;;;;;;9.32;2.97;;;;;;;4.22;100.00;103557.66;4933818;29;20416;-77
2023/12/16 04:39:44;;;;;;;12.15;3.17;;;;;;;4.24;100.00;103549.94;4916976;29;20051;-77
2023/12/16 04:42:11;;;;;;;14.80;2.95;;;;;;;4.26;100.00;103540.53;4878861;29;20039;-77
2023/12/16 04:44:38;;;;;;;11.80;3.28;;;;;;;4.27;100.00;103540.66;4942209;29;20489;-77
2023/12/16 04:47:07;;;;;;;10.73;3.00;;;;;;;4.33;100.00;103542.78;4897485;29;20050;-78
2023/12/16 04:49:34;;;;;;;12.88;3.20;;;;;;;4.36;100.00;103531.66;4918652;29;20047;-77
2023/12/16 04:52:02;;;;;;;11.68;3.10;;;;;;;4.39;100.00;103532.78;4932756;29;20051;-77
2023/12/16 04:54:30;;;;;;;19.58;3.15;;;;;;;4.39;100.00;103532.78;4917543;29;20453;-77
2023/12/16 04:56:57;;;;;;;16.48;3.13;;;;;;;4.38;100.00;103546.63;4874909;29;20043;-77
2023/12/16 04:59:24;;;;;;;12.02;3.00;;;;;;;4.38;100.00;103544.00;4948941;28;20063;-77
2023/12/16 05:01:52;;;;;;;15.32;2.92;;;;;;;4.38;100.00;103550.94;4917623;29;20059;-77
2023/12/16 05:04:19;;;;;;;18.65;3.60;;;;;;;4.37;100.00;103546.53;4929460;29;20054;-77
2023/12/16 05:06:47;;;;;;;16.00;3.38;;;;;;;4.37;100.00;103551.75;4931838;29;20394;-78
2023/12/16 05:09:14;;;;;;;14.85;3.75;;;;;;;4.38;100.00;103540.50;4891981;29;20850;-77
2023/12/16 05:11:42;;;;;;;11.48;2.65;;;;;;;4.40;100.00;103547.63;4891037;29;20047;-77
2023/12/16 05:14:09;;;;;;;14.48;3.25;;;;;;;4.42;100.00;103548.69;4947206;29;20069;-77
2023/12/16 05:16:37;;;;;;;12.40;2.95;;;;;;;4.46;100.00;103553.31;4923959;29;20043;-77
2023/12/16 05:19:04;;;;;;;12.05;3.13;;;;;;;4.51;100.00;103556.25;4931288;29;20058;-77
2023/12/16 05:21:31;;;;;;;10.75;3.20;;;;;;;4.53;100.00;103553.75;4897956;29;20078;-77
2023/12/16 05:23:59;;;;;;;10.52;2.90;;;;;;;4.55;100.00;103563.50;4878174;29;20044;-77
2023/12/16 05:26:26;;;;;;;17.23;3.70;;;;;;;4.59;100.00;103562.00;4885970;29;20055;-77
2023/12/16 05:28:54;;;;;;;10.30;2.63;;;;;;;4.62;100.00;103559.63;4951044;28;20059;-77
2023/12/16 05:31:21;;;;;;;17.10;2.90;;;;;;;4.65;100.00;103565.97;4923530;29;20070;-77
2023/12/16 05:33:49;;;;;;;18.00;3.85;;;;;;;4.70;100.00;103558.44;4907452;29;20046;-78
2023/12/16 05:36:16;;;;;;;16.98;3.42;;;;;;;4.73;100.00;103550.84;4945194;29;20062;-78
2023/12/16 05:38:43;;;;;;;17.13;3.22;;;;;;;4.80;100.00;103565.22;4924553;29;20040;-77
2023/12/16 05:41:14;;;;;;;21.50;3.45;;;;;;;4.83;100.00;103562.84;4897873;29;20070;-77
2023/12/16 05:43:42;;;;;;;18.40;3.42;;;;;;;4.88;100.00;103571.91;4843841;29;20055;-78
2023/12/16 05:46:09;;;;;;;17.48;3.90;;;;;;;4.94;100.00;103571.44;4929133;29;20047;-77
2023/12/16 05:48:36;;;;;;;13.32;2.67;;;;;;;4.97;100.00;103562.09;4906489;29;20051;-78
2023/12/16 05:51:05;;;;;;;14.30;2.65;;;;;;;5.00;100.00;103564.00;4947146;29;20070;-77
2023/12/16 05:53:36;;;;;;;13.55;3.38;;;;;;;5.03;100.00;103557.31;4913733;29;20792;-77
2023/12/16 05:56:06;;;;;;;9.93;2.75;;;;;;;5.06;100.00;103567.03;4923887;29;20051;-77
2023/12/16 05:58:33;;;;;;;12.80;2.20;;;;;;;5.08;100.00;103565.44;4906291;29;20039;-77
2023/12/16 06:01:01;;;;;;;9.65;2.50;;;;;;;5.11;100.00;103564.78;4949152;29;20058;-77
2023/12/16 06:03:29;;;;;;;10.02;3.25;;;;;;;5.13;100.00;103577.13;4884894;29;20046;-77
2023/12/16 06:05:56;;;;;;;14.13;2.58;;;;;;;5.14;100.00;103586.81;4930578;29;20059;-77
2023/12/16 06:08:24;;;;;;;17.00;3.13;;;;;;;5.16;100.00;103587.81;4913207;29;20059;-77
2023/12/16 06:10:51;;;;;;;11.25;2.55;;;;;;;5.19;100.00;103590.63;4908537;29;20043;-77
2023/12/16 06:13:18;;;;;;;13.43;4.93;;;;;;;5.22;100.00;103587.34;4911607;28;20055;-77
2023/12/16 06:15:46;;;;;;;16.00;2.45;;;;;;;5.21;100.00;103582.88;4902385;28;20046;-77
2023/12/16 06:18:13;;;;;;;11.63;3.22;;;;;;;5.23;100.00;103582.19;4922670;29;20050;-77
2023/12/16 06:20:41;;;;;;;13.38;2.70;;;;;;;5.23;100.00;103578.66;4912765;29;20051;-77
2023/12/16 06:23:08;;;;;;;22.27;5.10;;;;;;;5.23;100.00;103587.41;4928073;29;20144;-77
2023/12/16 06:25:36;;;;;;;25.92;5.30;;;;;;;5.25;100.00;103587.53;4944540;28;20051;-77
2023/12/16 06:28:03;;;;;;;15.95;4.20;;;;;;;5.24;100.00;103581.41;4922726;28;20063;-77
2023/12/16 06:30:30;;;;;;;20.50;3.70;;;;;;;5.24;100.00;103585.72;4889689;29;20051;-77
2023/12/16 06:32:58;;;;;;;9.73;3.10;;;;;;;5.25;100.00;103584.91;4916325;29;20066;-77
2023/12/16 06:35:25;;;;;;;15.25;3.58;;;;;;;5.24;100.00;103573.56;4886561;29;20062;-77
2023/12/16 06:37:53;;;;;;;18.70;3.60;;;;;;;5.26;100.00;103581.50;4948421;29;20442;-77
2023/12/16 06:40:20;;;;;;;18.35;3.10;;;;;;;5.26;100.00;103587.63;4926985;29;20489;-77
2023/12/16 06:42:47;;;;;;;15.15;3.75;;;;;;;5.27;100.00;103588.53;4907885;29;20062;-78
2023/12/16 06:45:15;;;;;;;19.48;4.65;;;;;;;5.27;100.00;103585.91;4879206;29;20054;-77
2023/12/16 06:47:42;;;;;;;16.35;3.50;;;;;;;5.28;100.00;103590.34;4944988;28;20074;-77
2023/12/16 06:50:10;;;;;;;19.05;4.07;;;;;;;5.29;100.00;103597.38;4941667;29;20062;-77
2023/12/16 06:52:37;;;;;;;22.90;5.30;;;;;;;5.27;100.00;103594.69;4910052;29;20592;-77
2023/12/16 06:55:05;;;;;;;17.95;4.10;;;;;;;5.28;100.00;103601.72;4913915;29;20059;-77
2023/12/16 06:57:32;;;;;;;20.85;4.82;;;;;;;5.28;100.00;103592.97;4927280;29;20043;-77
2023/12/16 07:00:00;;;;;;;24.55;4.97;;;;;;;5.27;100.00;103592.06;4911429;29;20066;-78
2023/12/16 07:02:27;;;;;;;21.92;5.18;;;;;;;5.28;100.00;103600.81;4898039;29;20058;-77
2023/12/16 07:04:54;;;;;;;30.42;5.70;;;;;;;5.27;100.00;103594.69;4898907;29;20051;-78
2023/12/16 07:07:25;;;;;;;28.23;4.97;;;;;;;5.27;100.00;103589.47;4900672;29;20702;-78
2023/12/16 07:09:52;;;;;;;23.83;4.70;;;;;;;5.28;100.00;103588.66;4947173;29;20054;-77
2023/12/16 07:12:20;;;;;;;26.00;5.28;;;;;;;5.30;100.00;103593.09;4907007;29;20827;-77
2023/12/16 07:14:47;;;;;;;38.53;6.07;;;;;;;5.31;100.00;103581.81;4889171;29;20046;-77
2023/12/16 07:17:15;;;;;;;32.95;5.63;;;;;;;5.32;100.00;103581.03;4887232;29;20409;-78
2023/12/16 07:19:42;;;;;;;24.30;5.82;;;;;;;5.32;100.00;103581.03;4883809;29;20058;-77
2023/12/16 07:22:10;;;;;;;28.40;6.28;;;;;;;5.33;100.00;103586.38;4903482;29;20047;-77
2023/12/16 07:24:38;;;;;;;21.40;6.55;;;;;;;5.34;100.00;103590.78;4912105;29;20063;-77
2023/12/16 07:27:05;;;;;;;31.75;6.93;;;;;;;5.35;100.00;103596.91;4943825;29;20054;-77
2023/12/16 07:29:36;;;;;;;37.28;6.43;;;;;;;5.36;100.00;103589.16;4904289;29;20059;-77
2023/12/16 07:32:03;;;;;;;;;;;;;;;5.37;100.00;103582.22;4868321;29;20062;-77
2023/12/16 07:34:30;;;;;;;35.33;7.05;;;;;;;5.37;100.00;103585.75;4946022;29;19923;-77
2023/12/16 07:36:58;;;;;;;26.42;6.72;;;;;;;5.38;100.00;103586.66;4883463;29;20059;-78
2023/12/16 07:39:26;;;;;;;33.25;6.75;;;;;;;5.39;100.00;103578.94;4915998;29;20528;-76
2023/12/16 07:41:54;;;;;;;26.05;6.70;;;;;;;5.41;100.00;103586.88;4912394;29;20061;-78
2023/12/16 07:44:21;;;;;;;33.58;7.53;;;;;;;5.40;100.00;103578.09;4901161;29;20046;-77
2023/12/16 07:46:49;;;;;;;37.00;7.22;;;;;;;5.41;100.00;103581.66;4868914;29;20051;-76
2023/12/16 07:49:19;;;;;;;41.88;7.60;;;;;;;5.41;100.00;103582.56;4943218;29;20051;-78
2023/12/16 07:51:46;;;;;;;34.13;9.20;;;;;;;5.41;100.00;103581.66;4913264;29;20066;-77
2023/12/16 07:54:14;;;;;;;40.53;7.85;;;;;;;5.42;100.00;103586.06;4900063;29;20051;-78
2023/12/16 07:56:42;;;;;;;39.55;7.72;;;;;;;5.43;100.00;103600.97;4928716;29;20046;-78
2023/12/16 07:59:09;;;;;;;29.80;7.78;;;;;;;5.43;100.00;103591.41;4921398;29;20043;-77
2023/12/16 08:01:36;;;;;;;37.97;7.63;;;;;;;5.43;100.00;103609.72;4872413;29;20055;-78
2023/12/16 08:04:04;;;;;;;36.75;8.25;;;;;;;5.45;100.00;103597.63;4930067;29;20440;-78
2023/12/16 08:06:32;;;;;;;34.15;7.80;;;;;;;5.44;100.00;103595.84;4911362;29;20047;-78
2023/12/16 08:09:00;;;;;;;38.08;8.70;;;;;;;5.45;100.00;103594.13;4905731;29;20059;-78
2023/12/16 08:11:27;;;;;;;41.88;9.18;;;;;;;5.45;100.00;103595.03;4911273;29;20412;-78
2023/12/16 08:13:55;;;;;;;26.08;6.78;;;;;;;5.45;100.00;103595.03;4883310;29;20416;-78
2023/12/16 08:16:22;;;;;;;30.00;8.05;;;;;;;5.46;100.00;103596.84;4874269;29;20441;-77
2023/12/16 08:18:50;;;;;;;27.60;7.40;;;;;;;5.48;100.00;103594.31;4891056;29;20424;-78
2023/12/16 08:21:21;;;;;;;37.08;8.23;;;;;;;5.49;100.00;103601.38;4942484;29;20047;-78
2023/12/16 08:23:48;;;;;;;;;;;;;;;5.51;100.00;103602.38;4902309;29;20047;-77
2023/12/16 08:26:15;;;;;;;45.13;9.82;;;;;;;5.52;100.00;103616.34;4925270;29;19930;-78
2023/12/16 08:28:43;;;;;;;38.10;9.75;;;;;;;5.53;100.00;103623.41;4925311;29;20055;-77
2023/12/16 08:31:10;;;;;;;37.97;9.23;;;;;;;5.54;100.00;103619.97;4910649;29;20051;-77
2023/12/16 08:33:38;;;;;;;40.30;8.98;;;;;;;5.55;100.00;103622.72;4887687;29;20059;-77
2023/12/16 08:36:06;;;;;;;38.47;8.90;;;;;;;5.57;100.00;103614.97;4913465;28;20051;-77
2023/12/16 08:38:38;;;;;;;48.28;9.27;;;;;;;5.59;100.00;103623.81;4904627;29;20843;-77
2023/12/16 08:41:10;;;;;;;34.90;8.75;;;;;;;5.59;100.00;103616.88;4914817;29;20063;-77
2023/12/16 08:43:38;;;;;;;45.47;10.25;;;;;;;5.61;100.00;103622.22;4932436;29;20460;-77
2023/12/16 08:46:05;;;;;;;43.65;10.10;;;;;;;5.60;100.00;103615.19;4931343;29;20062;-78
2023/12/16 08:48:35;;;;;;;45.95;10.80;;;;;;;5.62;100.00;103624.06;4924468;29;20464;-77
2023/12/16 08:51:03;;;;;;;43.30;10.80;;;;;;;5.64;100.00;103619.81;4907169;28;20050;-78
2023/12/16 08:53:31;;;;;;;39.70;10.55;;;;;;;5.66;100.00;103626.06;4928483;29;20059;-78
2023/12/16 08:55:58;;;;;;;49.95;10.73;;;;;;;5.65;100.00;103630.41;4920952;29;20074;-77
2023/12/16 08:58:26;;;;;;;57.97;11.73;;;;;;;5.68;100.00;103634.03;4945849;29;20047;-77
2023/12/16 09:00:53;;;;;;;47.67;10.77;;;;;;;5.69;100.00;103638.44;4931160;29;20051;-77
2023/12/16 09:03:21;;;;;;;53.80;10.20;;;;;;;5.70;100.00;103632.41;4937134;29;20043;-77
2023/12/16 09:05:48;;;;;;;62.45;11.18;;;;;;;5.71;100.00;103640.38;4889042;29;20047;-77
2023/12/16 09:08:16;;;;;;;48.53;10.30;;;;;;;5.72;100.00;103644.78;4943559;28;20043;-77
2023/12/16 09:10:43;;;;;;;60.60;11.60;;;;;;;5.73;100.00;103633.53;4917722;29;20121;-77
2023/12/16 09:13:11;;;;;;;49.17;10.88;;;;;;;5.75;100.00;103629.31;4926156;29;20055;-77
2023/12/16 09:15:38;;;;;;;44.75;11.05;;;;;;;5.76;100.00;103628.47;4920775;29;20051;-78
2023/12/16 09:18:05;;;;;;;44.42;12.63;;;;;;;5.79;100.00;103627.81;4923103;29;20077;-77
2023/12/16 09:20:34;;;;;;;44.88;10.27;;;;;;;5.79;100.00;103627.81;4882277;29;20055;-77
2023/12/16 09:23:01;;;;;;;52.90;11.30;;;;;;;5.82;100.00;103638.47;4927445;29;20055;-78
2023/12/16 09:25:29;;;;;;;51.65;10.85;;;;;;;5.85;100.00;103639.56;4871899;28;21119;-77
2023/12/16 09:27:56;;;;;;;43.70;10.95;;;;;;;5.85;100.00;103634.34;4929833;28;20063;-77
2023/12/16 09:30:24;;;;;;;46.20;11.63;;;;;;;5.89;100.00;103635.47;4919510;29;20051;-77
2023/12/16 09:32:53;;;;;;;39.80;10.45;;;;;;;5.91;100.00;103632.94;4919477;29;20055;-77
2023/12/16 09:35:21;;;;;;;39.40;10.88;;;;;;;5.94;100.00;103635.78;4879878;29;20062;-77
2023/12/16 09:37:49;;;;;;;39.47;10.93;;;;;;;5.95;100.00;103640.19;4917698;29;20516;-77
2023/12/16 09:40:16;;;;;;;52.78;12.30;;;;;;;5.96;100.00;103622.03;4921882;29;20058;-77
2023/12/16 09:42:49;;;;;;;45.00;11.70;;;;;;;5.98;100.00;103625.66;4892045;29;20051;-77
2023/12/16 09:45:17;;;;;;;48.13;11.55;;;;;;;6.00;100.00;103623.13;4937097;29;20050;-77
2023/12/16 09:47:45;;;;;;;54.13;12.15;;;;;;;6.02;100.00;103616.28;4910312;28;20055;-77
2023/12/16 09:50:13;;;;;;;47.55;12.88;;;;;;;6.03;100.00;103613.78;4878148;29;20421;-77
2023/12/16 09:52:42;;;;;;;40.53;11.93;;;;;;;6.05;100.00;103611.25;4904930;29;20083;-77
2023/12/16 09:55:09;;;;;;;43.75;11.98;;;;;;;6.06;100.00;103607.81;4942020;29;20051;-77
2023/12/16 09:57:39;;;;;;;41.35;10.73;;;;;;;6.08;100.00;103606.22;4914339;29;20051;-77
2023/12/16 10:00:09;;;;;;;41.90;11.05;;;;;;;6.10;100.00;103606.31;4927160;29;20157;-77
2023/12/16 10:02:37;;;;;;;43.72;11.15;;;;;;;6.11;100.00;103616.00;4894889;29;20548;-77
2023/12/16 10:05:07;;;;;;;35.72;11.23;;;;;;;6.11;100.00;103621.22;4924685;29;20042;-77
2023/12/16 10:07:35;;;;;;;41.75;12.00;;;;;;;6.12;100.00;103617.78;4878959;29;20047;-77
2023/12/16 10:10:04;;;;;;;42.42;11.55;;;;;;;6.11;100.00;103614.28;4917859;29;20070;-77
2023/12/16 10:12:35;;;;;;;47.28;11.95;;;;;;;6.12;100.00;103613.44;4930593;28;20065;-77
2023/12/16 10:15:03;;;;;;;41.83;11.65;;;;;;;6.12;100.00;103612.56;4892728;29;20054;-77
2023/12/16 10:17:31;;;;;;;42.88;11.88;;;;;;;6.13;100.00;103615.28;4898694;29;20048;-77
2023/12/16 10:19:58;;;;;;;42.60;12.00;;;;;;;6.13;100.00;103599.56;4907705;29;20059;-78
2023/12/16 10:22:28;;;;;;;56.35;12.48;;;;;;;6.14;100.00;103603.97;4842706;29;20915;-77
2023/12/16 10:24:55;;;;;;;39.15;11.57;;;;;;;6.17;100.00;103595.44;4914403;29;20061;-76
2023/12/16 10:27:23;;;;;;;51.78;11.30;;;;;;;6.18;100.00;103598.16;4915482;29;21621;-76
2023/12/16 10:29:52;;;;;;;46.03;11.35;;;;;;;6.19;100.00;103585.97;4876184;29;21468;-78
2023/12/16 10:32:33;;;;;;;48.25;11.48;;;;;;;6.20;100.00;103583.47;4914061;29;20039;-77
2023/12/16 10:35:02;;;;;;;36.25;11.88;;;;;;;6.20;100.00;103575.59;4899027;29;20055;-77
2023/12/16 10:37:30;;;;;;;47.53;13.20;;;;;;;6.21;100.00;103577.41;4851344;28;20390;-77
2023/12/16 10:39:58;;;;;;;41.50;12.23;;;;;;;6.23;100.00;103586.25;4942995;29;20050;-76
2023/12/16 10:42:25;;;;;;;47.95;13.20;;;;;;;6.23;100.00;103570.53;4941480;29;20051;-77
2023/12/16 10:44:53;;;;;;;40.17;12.25;;;;;;;6.25;100.00;103568.03;4903130;29;20062;-76
2023/12/16 10:47:27;;;;;;;43.80;10.98;;;;;;;6.24;100.00;103556.66;4900566;29;20058;-77
2023/12/16 10:49:58;;;;;;;35.70;11.60;;;;;;;6.27;100.00;103560.28;4944469;29;20046;-76
2023/12/16 10:52:33;;;;;;;46.05;11.85;;;;;;;6.24;100.00;103548.81;4851358;29;20693;-76
2023/12/16 10:55:03;;;;;;;42.28;11.90;;;;;;;6.25;100.00;103552.31;4910452;29;20059;-77
2023/12/16 10:57:34;;;;;;;45.88;11.65;;;;;;;6.23;100.00;103546.09;4941724;29;20043;-77
2023/12/16 11:00:04;;;;;;;30.90;9.43;;;;;;;6.24;100.00;103547.91;4904719;29;20417;-77
2023/12/16 11:02:46;;;;;;;;;;;;;;;6.24;100.00;103545.28;4880770;29;20059;-76
2023/12/16 11:05:34;;;;;;;;;;;;;;;6.23;100.00;103544.38;4935534;28;20512;-77
2023/12/16 11:08:03;;;;;;;35.10;10.90;;;;;;;6.23;100.00;103544.38;4887614;28;20388;-76
2023/12/16 11:10:31;;;;;;;40.40;11.93;;;;;;;6.24;100.00;103550.53;4905500;29;20055;-77
2023/12/16 11:13:03;;;;;;;32.50;11.88;;;;;;;6.24;100.00;103546.19;4919477;29;20078;-77
2023/12/16 11:15:32;;;;;;;31.27;11.20;;;;;;;6.27;100.00;103542.84;4901918;28;20051;-77
2023/12/16 11:18:12;;;;;;;47.78;11.85;;;;;;;6.28;100.00;103541.16;4915802;29;20485;-77
2023/12/16 11:20:56;;;;;;;43.53;12.77;;;;;;;6.30;100.00;103542.16;4928344;28;20062;-76